Terminal Aerodrome Forecast
Issued by NWS Wilmington, OH

Current Version | Previous Version | Text Only | Print | Product List | Glossary Off
Versions: 1 2 3 4 5 6 7 8 9 10 11 12 13 14 15 16 17 18 19

000
FTUS41 KILN 251100
TAFILN
TAF
KILN 251136Z 2512/2612 18009KT P6SM OVC035
     FM251300 22016G25KT P6SM OVC035
     FM251700 23016G26KT P6SM SCT035 BKN250
     FM260000 18006KT P6SM BKN200
     FM260900 08009KT 5SM -SHRA VCTS OVC025CB=

USA.gov is the U.S. government's official web portal to all federal, state and local government web resources and services.